Tanja Jacob — A8YR7 — position and weather

sailwx.info

Track history (hours):
 
Tides and Currents Weather Stations Pressure Air Temp Water Temp Dewpoint Dewpoint Depression Visibility Wind Speed Wind Dir Waves Ship Positions

Tanja Jacob

Last reported at 2014-Aug-27 10:24 UTC. Time now 2014-Aug-27 13:08 UTC.
Position N 33°40' E 035°23'.

Length 227 m; draft 13.4 m.

Type: Ship. MMSI: 636092217.

Date/timePositionNaut miles runAvg speedWind from/ knotsBaromVisibWave heightAir tempDewpointWater temp
2014-Aug-27 10:24N 33°40' E 035°23'0 0.0
2014-Aug-26 23:07N 33°40' E 035°23'0 0.0
2014-Aug-26 22:31N 33°40' E 035°23'0 0.0
2014-Aug-26 21:33N 33°40' E 035°23'0 0.0
2014-Aug-26 20:30N 33°40' E 035°23'0 0.0
2014-Aug-26 19:32N 33°40' E 035°23'0 0.0
2014-Aug-26 18:32N 33°40' E 035°23'0 0.0
2014-Aug-26 17:29N 33°40' E 035°23'0 0.0
2014-Aug-26 16:31N 33°40' E 035°23'0 0.0
2014-Aug-26 15:31N 33°40' E 035°23'0 0.0
2014-Aug-26 14:33N 33°40' E 035°23'0 0.0
2014-Aug-26 13:33N 33°40' E 035°23'0 0.0
2014-Aug-26 12:32N 33°40' E 035°23'0 0.0
2014-Aug-26 11:32N 33°40' E 035°23'0 0.0
2014-Aug-26 10:26N 33°40' E 035°23'0 0.0
2014-Aug-26 05:32N 33°40' E 035°23'0 0.0
2014-Aug-26 04:32N 33°40' E 035°23'0 0.0
2014-Aug-26 03:32N 33°40' E 035°23'0 0.0
2014-Aug-26 02:22N 33°40' E 035°23'0 0.0
2014-Aug-26 01:33N 33°40' E 035°23'0 0.0
2014-Aug-26 00:33N 33°40' E 035°23'5 4.9
2014-Aug-25 23:33N 33°45' E 035°24'9 9.1
2014-Aug-25 22:33N 33°54' E 035°22'1212.1
2014-Aug-25 21:33N 33°54' E 035°07'1211.8
2014-Aug-25 20:33N 33°54' E 034°53'1211.8
2014-Aug-25 19:33N 33°54' E 034°39'1211.7
2014-Aug-25 18:33N 33°54' E 034°25'1211.6
2014-Aug-25 17:33N 33°54' E 034°11'1211.6
2014-Aug-25 16:33N 33°55' E 033°57'1211.6
2014-Aug-25 15:33N 33°55' E 033°43'1211.8
2014-Aug-25 14:33N 33°56' E 033°28'1211.7
2014-Aug-25 13:33N 33°57' E 033°14'1211.7
2014-Aug-25 12:33N 33°57' E 033°00'1211.7
2014-Aug-25 11:33N 33°58' E 032°46'1211.8
2014-Aug-25 10:33N 33°58' E 032°32'1211.8
2014-Aug-25 09:33N 33°59' E 032°18'1211.8
2014-Aug-25 08:33N 33°60' E 032°04'1211.7
2014-Aug-25 07:33N 33°60' E 031°49'1211.6
2014-Aug-25 06:33N 34°01' E 031°35'1211.9
2014-Aug-25 05:33N 34°02' E 031°21'1211.7
2014-Aug-25 04:33N 34°02' E 031°07'1211.7
2014-Aug-25 03:33N 34°03' E 030°53'4711.6
2014-Aug-24 23:33N 34°05' E 029°57'1212.0
2014-Aug-24 22:33N 34°06' E 029°42'1212.1
2014-Aug-24 21:33N 34°07' E 029°28'1211.8
2014-Aug-24 20:32N 34°07' E 029°13'1211.9
2014-Aug-24 19:33N 34°08' E 028°59'1212.0
2014-Aug-24 18:33N 34°08' E 028°45'1212.1
2014-Aug-24 17:33N 34°09' E 028°30'1212.1
2014-Aug-24 16:33N 34°09' E 028°15'1211.9
2014-Aug-24 15:33N 34°10' E 028°01'5212.2
2014-Aug-24 11:18N 34°13' E 026°58'59411.7
2014-Aug-22 08:33N 36°08' E 015°05'1111.4
2014-Aug-22 07:33N 36°10' E 014°51'6011.6
2014-Aug-22 02:25N 36°31' E 013°42'2211.7
2014-Aug-22 00:33N 36°39' E 013°17'4811.5
2014-Aug-21 20:21N 36°57' E 012°21'1211.9
2014-Aug-21 19:21N 37°02' E 012°07'2511.8
2014-Aug-21 17:14N 37°13' E 011°39'2011.5
2014-Aug-21 15:29N 37°21' E 011°15'1111.4
2014-Aug-21 14:33N 37°24' E 011°03'1211.7
2014-Aug-21 13:30N 37°27' E 010°48'1212.1
2014-Aug-21 12:31N 37°30' E 010°33'1212.0
2014-Aug-21 11:33N 37°33' E 010°19'1212.3
2014-Aug-21 10:33N 37°34' E 010°04'1212.3
2014-Aug-21 09:33N 37°35' E 009°48'2412.2
2014-Aug-21 07:33N 37°37' E 009°17'1212.3
2014-Aug-21 06:32N 37°38' E 009°02'1212.1
2014-Aug-21 05:33N 37°39' E 008°47'41312.2
2014-Aug-19 19:33N 36°46' E 000°12'1612.9
2014-Aug-19 18:20N 36°43' W 000°07'25212.1
2014-Aug-18 21:25N 36°01' W 005°17'7 0.5
2014-Aug-18 06:27N 36°07' W 005°22'5 2.6
2014-Aug-18 04:24N 36°02' W 005°19'  
Track history (hours):
 
Tides and Currents Weather Stations Pressure Air Temp Water Temp Dewpoint Dewpoint Depression Visibility Wind Speed Wind Dir Waves Ship Positions

Tanja Jacob

Last reported at 2014-Aug-27 10:24 UTC. Time now 2014-Aug-27 13:08 UTC.
Position N 33°40' E 035°23'.

Length 227 m; draft 13.4 m.

Type: Ship. MMSI: 636092217.

Date/timePositionNaut miles runAvg speedWind from/ knotsBaromVisibWave heightAir tempDewpointWater temp
2014-Aug-27 10:24N 33°40' E 035°23'0 0.0
2014-Aug-26 23:07N 33°40' E 035°23'0 0.0
2014-Aug-26 22:31N 33°40' E 035°23'0 0.0
2014-Aug-26 21:33N 33°40' E 035°23'0 0.0
2014-Aug-26 20:30N 33°40' E 035°23'0 0.0
2014-Aug-26 19:32N 33°40' E 035°23'0 0.0
2014-Aug-26 18:32N 33°40' E 035°23'0 0.0
2014-Aug-26 17:29N 33°40' E 035°23'0 0.0
2014-Aug-26 16:31N 33°40' E 035°23'0 0.0
2014-Aug-26 15:31N 33°40' E 035°23'0 0.0
2014-Aug-26 14:33N 33°40' E 035°23'0 0.0
2014-Aug-26 13:33N 33°40' E 035°23'0 0.0
2014-Aug-26 12:32N 33°40' E 035°23'0 0.0
2014-Aug-26 11:32N 33°40' E 035°23'0 0.0
2014-Aug-26 10:26N 33°40' E 035°23'0 0.0
2014-Aug-26 05:32N 33°40' E 035°23'0 0.0
2014-Aug-26 04:32N 33°40' E 035°23'0 0.0
2014-Aug-26 03:32N 33°40' E 035°23'0 0.0
2014-Aug-26 02:22N 33°40' E 035°23'0 0.0
2014-Aug-26 01:33N 33°40' E 035°23'0 0.0
2014-Aug-26 00:33N 33°40' E 035°23'5 4.9
2014-Aug-25 23:33N 33°45' E 035°24'9 9.1
2014-Aug-25 22:33N 33°54' E 035°22'1212.1
2014-Aug-25 21:33N 33°54' E 035°07'1211.8
2014-Aug-25 20:33N 33°54' E 034°53'1211.8
2014-Aug-25 19:33N 33°54' E 034°39'1211.7
2014-Aug-25 18:33N 33°54' E 034°25'1211.6
2014-Aug-25 17:33N 33°54' E 034°11'1211.6
2014-Aug-25 16:33N 33°55' E 033°57'1211.6
2014-Aug-25 15:33N 33°55' E 033°43'1211.8
2014-Aug-25 14:33N 33°56' E 033°28'1211.7
2014-Aug-25 13:33N 33°57' E 033°14'1211.7
2014-Aug-25 12:33N 33°57' E 033°00'1211.7
2014-Aug-25 11:33N 33°58' E 032°46'1211.8
2014-Aug-25 10:33N 33°58' E 032°32'1211.8
2014-Aug-25 09:33N 33°59' E 032°18'1211.8
2014-Aug-25 08:33N 33°60' E 032°04'1211.7
2014-Aug-25 07:33N 33°60' E 031°49'1211.6
2014-Aug-25 06:33N 34°01' E 031°35'1211.9
2014-Aug-25 05:33N 34°02' E 031°21'1211.7
2014-Aug-25 04:33N 34°02' E 031°07'1211.7
2014-Aug-25 03:33N 34°03' E 030°53'4711.6
2014-Aug-24 23:33N 34°05' E 029°57'1212.0
2014-Aug-24 22:33N 34°06' E 029°42'1212.1
2014-Aug-24 21:33N 34°07' E 029°28'1211.8
2014-Aug-24 20:32N 34°07' E 029°13'1211.9
2014-Aug-24 19:33N 34°08' E 028°59'1212.0
2014-Aug-24 18:33N 34°08' E 028°45'1212.1
2014-Aug-24 17:33N 34°09' E 028°30'1212.1
2014-Aug-24 16:33N 34°09' E 028°15'1211.9
2014-Aug-24 15:33N 34°10' E 028°01'5212.2
2014-Aug-24 11:18N 34°13' E 026°58'59411.7
2014-Aug-22 08:33N 36°08' E 015°05'1111.4
2014-Aug-22 07:33N 36°10' E 014°51'6011.6
2014-Aug-22 02:25N 36°31' E 013°42'2211.7
2014-Aug-22 00:33N 36°39' E 013°17'4811.5
2014-Aug-21 20:21N 36°57' E 012°21'1211.9
2014-Aug-21 19:21N 37°02' E 012°07'2511.8
2014-Aug-21 17:14N 37°13' E 011°39'2011.5
2014-Aug-21 15:29N 37°21' E 011°15'1111.4
2014-Aug-21 14:33N 37°24' E 011°03'1211.7
2014-Aug-21 13:30N 37°27' E 010°48'1212.1
2014-Aug-21 12:31N 37°30' E 010°33'1212.0
2014-Aug-21 11:33N 37°33' E 010°19'1212.3
2014-Aug-21 10:33N 37°34' E 010°04'1212.3
2014-Aug-21 09:33N 37°35' E 009°48'2412.2
2014-Aug-21 07:33N 37°37' E 009°17'1212.3
2014-Aug-21 06:32N 37°38' E 009°02'1212.1
2014-Aug-21 05:33N 37°39' E 008°47'41312.2
2014-Aug-19 19:33N 36°46' E 000°12'1612.9
2014-Aug-19 18:20N 36°43' W 000°07'25212.1
2014-Aug-18 21:25N 36°01' W 005°17'7 0.5
2014-Aug-18 06:27N 36°07' W 005°22'5 2.6
2014-Aug-18 04:24N 36°02' W 005°19'  

Dump ship's entire track history